createdAt,value
2022-11-02T00:00:41.721Z,98
2022-11-02T00:01:41.813Z,98
2022-11-02T00:02:41.755Z,98
2022-11-02T00:03:41.760Z,98
2022-11-02T00:04:41.776Z,98
2022-11-02T00:05:41.749Z,98
2022-11-02T00:06:41.783Z,98
2022-11-02T00:07:41.749Z,98
2022-11-02T00:08:41.795Z,98
2022-11-02T00:09:41.765Z,98
2022-11-02T00:10:41.770Z,98
2022-11-02T00:11:41.800Z,98
2022-11-02T00:12:41.786Z,98
2022-11-02T00:13:41.772Z,98
2022-11-02T00:14:41.765Z,98
2022-11-02T00:15:41.788Z,98
2022-11-02T00:16:41.810Z,98
2022-11-02T00:17:41.777Z,98
2022-11-02T00:18:41.777Z,98
2022-11-02T00:19:41.792Z,98
2022-11-02T00:20:41.797Z,98
2022-11-02T00:21:41.812Z,98
2022-11-02T00:22:41.790Z,98
2022-11-02T00:23:41.776Z,98
2022-11-02T00:24:41.792Z,98
2022-11-02T00:25:41.782Z,98
2022-11-02T00:26:41.783Z,98
2022-11-02T00:27:41.787Z,98
2022-11-02T00:28:41.804Z,98
2022-11-02T00:29:41.787Z,98
2022-11-02T00:30:41.803Z,98
2022-11-02T00:31:41.837Z,98
2022-11-02T00:32:41.806Z,98
2022-11-02T00:33:41.811Z,98
2022-11-02T00:34:41.813Z,98
2022-11-02T00:35:41.838Z,98
2022-11-02T00:36:41.891Z,98
2022-11-02T00:37:41.814Z,98
2022-11-02T00:38:41.837Z,98
2022-11-02T00:39:41.826Z,98
2022-11-02T00:40:41.848Z,98
2022-11-02T00:41:41.839Z,98
2022-11-02T00:42:41.822Z,98
2022-11-02T00:43:41.828Z,98
2022-11-02T00:44:41.845Z,98
2022-11-02T00:45:41.864Z,98
2022-11-02T00:46:41.852Z,98
2022-11-02T00:47:41.831Z,98
2022-11-02T00:48:41.837Z,98
2022-11-02T00:49:41.835Z,98
2022-11-02T00:50:41.830Z,98
2022-11-02T00:51:41.842Z,98
2022-11-02T00:52:41.898Z,98
2022-11-02T00:53:41.852Z,98
2022-11-02T00:54:41.873Z,98
2022-11-02T00:55:41.875Z,98
2022-11-02T00:56:41.881Z,98
2022-11-02T00:57:41.867Z,98
2022-11-02T00:58:41.865Z,98
2022-11-02T00:59:41.861Z,98
2022-11-02T01:00:41.862Z,98
2022-11-02T01:01:42.017Z,98
2022-11-02T01:02:42.002Z,98
2022-11-02T01:03:41.919Z,98
2022-11-02T01:04:41.885Z,98
2022-11-02T01:05:41.875Z,98
2022-11-02T01:06:41.883Z,98
2022-11-02T01:07:41.920Z,99
2022-11-02T01:08:41.907Z,99
2022-11-02T01:09:41.897Z,99
2022-11-02T01:10:44.045Z,99
2022-11-02T01:11:41.924Z,99
2022-11-02T01:12:41.892Z,99
2022-11-02T01:13:42.000Z,99
2022-11-02T01:14:41.932Z,99
2022-11-02T01:15:41.902Z,99
2022-11-02T01:16:41.969Z,99
2022-11-02T01:17:41.913Z,99
2022-11-02T01:18:41.929Z,99
2022-11-02T01:19:41.915Z,99
2022-11-02T01:20:41.901Z,99
2022-11-02T01:21:41.941Z,99
2022-11-02T01:22:41.912Z,99
2022-11-02T01:23:41.917Z,99
2022-11-02T01:24:41.952Z,98
2022-11-02T01:25:41.905Z,98
2022-11-02T01:26:41.930Z,98
2022-11-02T01:27:41.928Z,98
2022-11-02T01:28:41.945Z,98
2022-11-02T01:29:41.934Z,98
2022-11-02T01:30:41.923Z,98
2022-11-02T01:31:41.949Z,98
2022-11-02T01:32:41.952Z,98
2022-11-02T01:33:41.946Z,98
2022-11-02T01:34:41.924Z,98
2022-11-02T01:35:41.956Z,98
2022-11-02T01:36:41.959Z,98
2022-11-02T01:37:42.104Z,98
2022-11-02T01:38:41.938Z,98
2022-11-02T01:39:41.940Z,98
2022-11-02T01:40:41.957Z,99
2022-11-02T01:41:41.972Z,99
2022-11-02T01:42:41.949Z,99
2022-11-02T01:43:41.957Z,99
2022-11-02T01:44:41.952Z,99
2022-11-02T01:45:41.969Z,99
2022-11-02T01:46:41.968Z,99
2022-11-02T01:47:41.955Z,99
2022-11-02T01:48:41.985Z,99
2022-11-02T01:49:41.982Z,99
2022-11-02T01:50:41.959Z,99
2022-11-02T01:51:42.008Z,99
2022-11-02T01:52:41.998Z,99
2022-11-02T01:53:41.992Z,99
2022-11-02T01:54:41.982Z,99
2022-11-02T01:55:41.998Z,99
2022-11-02T01:56:42.042Z,99
2022-11-02T01:57:42.076Z,99
2022-11-02T01:58:42.001Z,99
2022-11-02T01:59:41.992Z,99
2022-11-02T02:00:42.016Z,99
2022-11-02T02:01:42.068Z,99
2022-11-02T02:02:42.059Z,99
2022-11-02T02:03:42.002Z,99
2022-11-02T02:04:41.995Z,99
2022-11-02T02:05:42.021Z,99
2022-11-02T02:06:42.020Z,99
2022-11-02T02:07:42.004Z,99
2022-11-02T02:08:42.023Z,99
2022-11-02T02:09:42.028Z,99
2022-11-02T02:10:42.038Z,99
2022-11-02T02:11:42.044Z,99
2022-11-02T02:12:42.072Z,99
2022-11-02T02:13:42.064Z,99
2022-11-02T02:14:42.053Z,99
2022-11-02T02:15:42.059Z,99
2022-11-02T02:16:42.140Z,99
2022-11-02T02:17:42.046Z,99
2022-11-02T02:18:42.070Z,99
2022-11-02T02:19:42.056Z,99
2022-11-02T02:20:42.073Z,99
2022-11-02T02:21:42.252Z,99
2022-11-02T02:22:42.039Z,99
2022-11-02T02:23:42.060Z,99
2022-11-02T02:24:42.048Z,99
2022-11-02T02:25:42.058Z,99
2022-11-02T02:26:42.064Z,99
2022-11-02T02:27:42.056Z,99
2022-11-02T02:28:42.078Z,99
2022-11-02T02:29:42.272Z,99
2022-11-02T02:30:42.091Z,99
2022-11-02T02:31:42.098Z,99
2022-11-02T02:32:42.092Z,99
2022-11-02T02:33:42.096Z,99
2022-11-02T02:34:42.077Z,99
2022-11-02T02:35:42.097Z,99
2022-11-02T02:36:42.166Z,99
2022-11-02T02:37:42.097Z,99
2022-11-02T02:38:42.117Z,99
2022-11-02T02:39:42.109Z,99
2022-11-02T02:40:42.125Z,99
2022-11-02T02:41:42.124Z,99
2022-11-02T02:42:42.111Z,99
2022-11-02T02:43:42.110Z,99
2022-11-02T02:44:42.141Z,99
2022-11-02T02:45:42.107Z,99
2022-11-02T02:46:42.697Z,99
2022-11-02T02:47:42.109Z,99
2022-11-02T02:48:42.137Z,99
2022-11-02T02:49:42.144Z,99
2022-11-02T02:50:42.151Z,99
2022-11-02T02:51:42.152Z,99
2022-11-02T02:52:42.166Z,99
2022-11-02T02:53:42.135Z,99
2022-11-02T02:54:42.150Z,99
2022-11-02T02:55:42.173Z,99
2022-11-02T02:56:42.251Z,99
2022-11-02T02:57:42.167Z,99
2022-11-02T02:58:42.160Z,99
2022-11-02T02:59:42.160Z,99
2022-11-02T03:00:42.172Z,99
2022-11-02T03:01:42.242Z,99
2022-11-02T03:02:42.197Z,99
2022-11-02T03:03:42.177Z,99
2022-11-02T03:04:42.158Z,99
2022-11-02T03:05:42.168Z,99
2022-11-02T03:06:42.185Z,99
2022-11-02T03:07:42.203Z,99
2022-11-02T03:08:42.166Z,99
2022-11-02T03:09:42.180Z,99
2022-11-02T03:10:42.180Z,99
2022-11-02T03:11:42.181Z,99
2022-11-02T03:12:42.178Z,99
2022-11-02T03:13:42.210Z,99
2022-11-02T03:14:42.175Z,99
2022-11-02T03:15:42.183Z,99
2022-11-02T03:16:42.209Z,98
2022-11-02T03:17:42.181Z,98
2022-11-02T03:18:42.192Z,98
2022-11-02T03:19:42.239Z,98
2022-11-02T03:20:42.397Z,98
2022-11-02T03:21:42.208Z,98
2022-11-02T03:22:42.197Z,98
2022-11-02T03:23:42.227Z,98
2022-11-02T03:24:42.220Z,99
2022-11-02T03:25:42.202Z,99
2022-11-02T03:26:42.331Z,99
2022-11-02T03:27:42.236Z,99
2022-11-02T03:28:42.232Z,99
2022-11-02T03:29:42.225Z,99
2022-11-02T03:30:42.207Z,99
2022-11-02T03:31:42.226Z,99
2022-11-02T03:32:42.256Z,99
2022-11-02T03:33:42.246Z,99
2022-11-02T03:34:42.218Z,99
2022-11-02T03:35:42.230Z,99
2022-11-02T03:36:42.244Z,99
2022-11-02T03:37:42.253Z,99
2022-11-02T03:38:42.321Z,99
2022-11-02T03:39:42.263Z,99
2022-11-02T03:40:42.263Z,99
2022-11-02T03:41:42.265Z,99
2022-11-02T03:42:42.249Z,99
2022-11-02T03:43:42.265Z,99
2022-11-02T03:44:42.251Z,99
2022-11-02T03:45:42.254Z,99
2022-11-02T03:46:42.269Z,99
2022-11-02T03:47:42.259Z,99
2022-11-02T03:48:42.277Z,99
2022-11-02T03:49:42.275Z,99
2022-11-02T03:50:42.278Z,99
2022-11-02T03:51:42.289Z,99
2022-11-02T03:52:42.310Z,99
2022-11-02T03:53:42.284Z,99
2022-11-02T03:54:42.295Z,99
2022-11-02T03:55:42.293Z,98
2022-11-02T03:56:42.303Z,98
2022-11-02T03:57:42.297Z,98
2022-11-02T03:58:42.285Z,98
2022-11-02T03:59:42.283Z,98
2022-11-02T04:00:42.296Z,98
2022-11-02T04:01:42.424Z,99
2022-11-02T04:02:42.345Z,99
2022-11-02T04:03:42.331Z,99
2022-11-02T04:04:42.349Z,99
2022-11-02T04:05:42.322Z,99
2022-11-02T04:06:42.322Z,99
2022-11-02T04:07:42.328Z,99
2022-11-02T04:08:42.319Z,99
2022-11-02T04:09:42.316Z,99
2022-11-02T04:10:42.317Z,99
2022-11-02T04:11:42.383Z,99
2022-11-02T04:12:42.369Z,99
2022-11-02T04:13:42.347Z,99
2022-11-02T04:14:42.350Z,99
2022-11-02T04:15:42.341Z,99
2022-11-02T04:16:42.353Z,99
2022-11-02T04:17:42.455Z,99
2022-11-02T04:18:42.407Z,99
2022-11-02T04:19:44.184Z,99
2022-11-02T04:20:42.378Z,99
2022-11-02T04:21:42.370Z,99
2022-11-02T04:22:42.356Z,99
2022-11-02T04:23:42.366Z,99
2022-11-02T04:24:42.367Z,99
2022-11-02T04:25:42.381Z,99
2022-11-02T04:26:42.391Z,98
2022-11-02T04:27:42.384Z,98
2022-11-02T04:28:42.381Z,98
2022-11-02T04:29:42.381Z,98
2022-11-02T04:30:42.385Z,98
2022-11-02T04:31:42.404Z,98
2022-11-02T04:32:42.376Z,98
2022-11-02T04:33:42.428Z,98
2022-11-02T04:34:42.415Z,98
2022-11-02T04:35:42.464Z,98
2022-11-02T04:36:42.441Z,98
2022-11-02T04:37:42.412Z,98
2022-11-02T04:38:42.449Z,98
2022-11-02T04:39:42.413Z,98
2022-11-02T04:40:42.422Z,98
2022-11-02T04:41:42.449Z,98
2022-11-02T04:42:42.441Z,98
2022-11-02T04:43:42.424Z,98
2022-11-02T04:44:42.447Z,98
2022-11-02T04:45:42.437Z,98
2022-11-02T04:46:42.446Z,98
2022-11-02T04:47:42.435Z,98
2022-11-02T04:48:42.426Z,98
2022-11-02T04:49:42.451Z,98
2022-11-02T04:50:42.454Z,98
2022-11-02T04:51:45.779Z,98
2022-11-02T04:52:42.552Z,98
2022-11-02T04:53:42.447Z,98
2022-11-02T04:54:42.443Z,98
2022-11-02T04:55:42.454Z,98
2022-11-02T04:56:42.469Z,98
2022-11-02T04:57:42.540Z,98
2022-11-02T04:58:42.452Z,98
2022-11-02T04:59:42.467Z,98
2022-11-02T05:00:42.491Z,98
2022-11-02T05:01:42.591Z,98
2022-11-02T05:02:42.554Z,99
2022-11-02T05:03:42.472Z,99
2022-11-02T05:04:42.491Z,99
2022-11-02T05:05:42.492Z,99
2022-11-02T05:06:42.514Z,99
2022-11-02T05:07:42.479Z,99
2022-11-02T05:08:42.520Z,99
2022-11-02T05:09:42.508Z,99
2022-11-02T05:10:42.511Z,99
2022-11-02T05:11:42.518Z,99
2022-11-02T05:12:42.547Z,99
2022-11-02T05:13:42.543Z,99
2022-11-02T05:14:42.525Z,99
2022-11-02T05:15:42.533Z,99
2022-11-02T05:16:42.535Z,99
2022-11-02T05:17:42.519Z,99
2022-11-02T05:18:42.555Z,99
2022-11-02T05:19:42.521Z,99
2022-11-02T05:20:42.522Z,99
2022-11-02T05:21:42.544Z,99
2022-11-02T05:22:42.531Z,98
2022-11-02T05:23:42.549Z,98
2022-11-02T05:24:42.550Z,98
2022-11-02T05:25:42.538Z,98
2022-11-02T05:26:42.561Z,98
2022-11-02T05:27:42.554Z,98
2022-11-02T05:28:42.547Z,98
2022-11-02T05:29:42.556Z,98
2022-11-02T05:30:42.589Z,98
2022-11-02T05:31:42.582Z,98
2022-11-02T05:32:42.599Z,98
2022-11-02T05:33:42.551Z,98
2022-11-02T05:34:42.576Z,98
2022-11-02T05:35:42.583Z,98
2022-11-02T05:36:42.580Z,98
2022-11-02T05:37:42.578Z,98
2022-11-02T05:38:42.580Z,98
2022-11-02T05:39:43.998Z,98
2022-11-02T05:40:42.620Z,98
2022-11-02T05:41:42.594Z,98
2022-11-02T05:42:42.587Z,98
2022-11-02T05:43:42.587Z,98
2022-11-02T05:44:42.619Z,98
2022-11-02T05:45:42.628Z,98
2022-11-02T05:46:42.624Z,98
2022-11-02T05:47:42.620Z,98
2022-11-02T05:48:42.612Z,98
2022-11-02T05:49:42.595Z,98
2022-11-02T05:50:42.597Z,98
2022-11-02T05:51:42.635Z,98
2022-11-02T05:52:42.633Z,98
2022-11-02T05:53:42.625Z,98
2022-11-02T05:54:42.611Z,98
2022-11-02T05:55:42.619Z,99
2022-11-02T05:56:42.655Z,99
2022-11-02T05:57:42.633Z,99
2022-11-02T05:58:42.665Z,98
2022-11-02T05:59:43.818Z,98
2022-11-02T06:00:42.736Z,98
2022-11-02T06:01:42.809Z,98
2022-11-02T06:02:42.627Z,98
2022-11-02T06:03:42.649Z,98
2022-11-02T06:04:42.629Z,98
2022-11-02T06:05:42.738Z,98
2022-11-02T06:06:42.678Z,98
2022-11-02T06:07:42.650Z,98
2022-11-02T06:08:42.657Z,98
2022-11-02T06:09:42.661Z,98
2022-11-02T06:10:42.649Z,98
2022-11-02T06:11:42.669Z,98
2022-11-02T06:12:42.705Z,98
2022-11-02T06:13:42.695Z,98
2022-11-02T06:14:42.703Z,98
2022-11-02T06:15:42.675Z,98
2022-11-02T06:16:42.678Z,98
2022-11-02T06:17:42.713Z,98
2022-11-02T06:18:42.677Z,98
2022-11-02T06:19:42.689Z,98
2022-11-02T06:20:42.687Z,98
2022-11-02T06:21:44.438Z,98
2022-11-02T06:22:42.707Z,98
2022-11-02T06:23:42.703Z,98
2022-11-02T06:24:42.715Z,98
2022-11-02T06:25:42.700Z,98
2022-11-02T06:26:42.712Z,98
2022-11-02T06:27:44.986Z,98
2022-11-02T06:28:42.745Z,98
2022-11-02T06:29:42.740Z,98
2022-11-02T06:30:42.734Z,98
2022-11-02T06:31:42.758Z,98
2022-11-02T06:32:42.747Z,98
2022-11-02T06:33:42.730Z,98
2022-11-02T06:34:42.742Z,98
2022-11-02T06:35:42.733Z,98
2022-11-02T06:36:42.736Z,98
2022-11-02T06:37:42.763Z,98
2022-11-02T06:38:42.763Z,98
2022-11-02T06:39:42.763Z,98
2022-11-02T06:40:42.776Z,98
2022-11-02T06:41:42.753Z,98
2022-11-02T06:42:44.990Z,98
2022-11-02T06:43:42.750Z,98
2022-11-02T06:44:42.786Z,98
2022-11-02T06:45:42.753Z,98
2022-11-02T06:46:42.766Z,98
2022-11-02T06:47:42.762Z,98
2022-11-02T06:48:42.769Z,98
2022-11-02T06:49:42.780Z,98
2022-11-02T06:50:42.760Z,98
2022-11-02T06:51:42.783Z,98
2022-11-02T06:52:42.785Z,98
2022-11-02T06:53:42.780Z,98
2022-11-02T06:54:42.772Z,98
2022-11-02T06:55:42.903Z,98
2022-11-02T06:56:42.780Z,98
2022-11-02T06:57:42.804Z,98
2022-11-02T06:58:42.791Z,98
2022-11-02T06:59:42.773Z,98
2022-11-02T07:00:42.860Z,98
2022-11-02T07:01:42.941Z,98
2022-11-02T07:02:42.796Z,98
2022-11-02T07:03:42.789Z,98
2022-11-02T07:04:42.791Z,98
2022-11-02T07:05:42.791Z,98
2022-11-02T07:06:42.806Z,98
2022-11-02T07:07:42.792Z,98
2022-11-02T07:08:42.793Z,98
2022-11-02T07:09:42.809Z,98
2022-11-02T07:10:42.788Z,98
2022-11-02T07:11:42.806Z,98
2022-11-02T07:12:42.840Z,98
2022-11-02T07:13:42.826Z,98
2022-11-02T07:14:42.821Z,98
2022-11-02T07:15:42.816Z,98
2022-11-02T07:16:42.870Z,98
2022-11-02T07:17:42.831Z,98
2022-11-02T07:18:42.822Z,98
2022-11-02T07:19:42.829Z,98
2022-11-02T07:20:42.828Z,98
2022-11-02T07:21:45.022Z,98
2022-11-02T07:22:42.822Z,98
2022-11-02T07:23:42.850Z,97
2022-11-02T07:24:42.878Z,97
2022-11-02T07:25:42.833Z,97
2022-11-02T07:26:42.865Z,98
2022-11-02T07:27:42.836Z,98
2022-11-02T07:28:42.871Z,98
2022-11-02T07:29:42.865Z,98
2022-11-02T07:30:42.850Z,98
2022-11-02T07:31:42.888Z,98
2022-11-02T07:32:42.905Z,98
2022-11-02T07:33:42.872Z,98
2022-11-02T07:34:42.879Z,98
2022-11-02T07:35:42.857Z,98
2022-11-02T07:36:42.869Z,98
2022-11-02T07:37:42.910Z,98
2022-11-02T07:38:42.914Z,98
2022-11-02T07:39:42.920Z,98
2022-11-02T07:40:42.905Z,98
2022-11-02T07:41:44.811Z,98
2022-11-02T07:42:42.899Z,98
2022-11-02T07:43:43.193Z,98
2022-11-02T07:44:42.900Z,98
2022-11-02T07:45:42.900Z,98
2022-11-02T07:46:42.919Z,97
2022-11-02T07:47:42.928Z,97
2022-11-02T07:48:42.914Z,97
2022-11-02T07:49:42.928Z,97
2022-11-02T07:50:42.894Z,97
2022-11-02T07:51:42.938Z,97
2022-11-02T07:52:42.934Z,97
2022-11-02T07:53:42.921Z,97
2022-11-02T07:54:44.651Z,97
2022-11-02T07:55:42.949Z,97
2022-11-02T07:56:42.948Z,96
2022-11-02T07:57:42.939Z,96
2022-11-02T07:58:42.937Z,97
2022-11-02T07:59:42.930Z,97
2022-11-02T08:00:42.969Z,97
2022-11-02T08:01:43.019Z,96
2022-11-02T08:02:43.214Z,96
2022-11-02T08:03:42.957Z,95
2022-11-02T08:04:44.038Z,95
2022-11-02T08:05:42.955Z,94
2022-11-02T08:06:42.943Z,94
2022-11-02T08:07:42.961Z,94
2022-11-02T08:08:42.974Z,94
2022-11-02T08:09:42.967Z,95
2022-11-02T08:10:42.957Z,95
2022-11-02T08:11:43.006Z,94
2022-11-02T08:12:43.011Z,94
2022-11-02T08:13:42.984Z,94
2022-11-02T08:14:43.018Z,93
2022-11-02T08:15:42.975Z,93
2022-11-02T08:16:43.012Z,93
2022-11-02T08:17:43.017Z,93
2022-11-02T08:18:43.029Z,93
2022-11-02T08:19:43.033Z,93
2022-11-02T08:20:43.003Z,93
2022-11-02T08:21:43.065Z,92
2022-11-02T08:22:43.028Z,93
2022-11-02T08:23:43.037Z,93
2022-11-02T08:24:43.033Z,92
2022-11-02T08:25:43.003Z,91
2022-11-02T08:26:44.906Z,92
2022-11-02T08:27:43.002Z,92
2022-11-02T08:28:43.007Z,91
2022-11-02T08:29:43.014Z,91
2022-11-02T08:30:43.060Z,91
2022-11-02T08:31:43.024Z,91
2022-11-02T08:32:43.061Z,91
2022-11-02T08:33:43.050Z,91
2022-11-02T08:34:43.061Z,91
2022-11-02T08:35:43.038Z,91
2022-11-02T08:36:43.105Z,90
2022-11-02T08:37:43.101Z,90
2022-11-02T08:38:43.063Z,90
2022-11-02T08:39:43.051Z,90
2022-11-02T08:40:43.053Z,90
2022-11-02T08:41:43.087Z,90
2022-11-02T08:42:43.058Z,90
2022-11-02T08:43:43.066Z,90
2022-11-02T08:44:43.061Z,88
2022-11-02T08:46:13.025Z,88
2022-11-02T08:46:43.162Z,89
2022-11-02T08:47:43.070Z,90
2022-11-02T08:48:43.093Z,89
2022-11-02T08:49:43.069Z,89
2022-11-02T08:50:43.091Z,88
2022-11-02T08:51:43.088Z,88
2022-11-02T08:52:43.082Z,89
2022-11-02T08:53:47.226Z,89
2022-11-02T08:54:43.085Z,88
2022-11-02T08:55:43.099Z,88
2022-11-02T08:56:43.092Z,89
2022-11-02T08:57:43.084Z,88
2022-11-02T08:58:43.107Z,89
2022-11-02T08:59:43.079Z,89
2022-11-02T09:00:43.094Z,89
2022-11-02T09:01:43.248Z,89
2022-11-02T09:02:43.167Z,89
2022-11-02T09:03:43.104Z,89
2022-11-02T09:04:43.104Z,88
2022-11-02T09:05:43.121Z,88
2022-11-02T09:06:43.118Z,89
2022-11-02T09:07:43.110Z,89
2022-11-02T09:08:43.115Z,89
2022-11-02T09:09:43.149Z,88
2022-11-02T09:10:43.134Z,88
2022-11-02T09:11:43.143Z,88
2022-11-02T09:12:43.142Z,88
2022-11-02T09:13:43.196Z,88
2022-11-02T09:14:43.153Z,88
2022-11-02T09:15:43.149Z,88
2022-11-02T09:16:43.143Z,88
2022-11-02T09:17:43.134Z,89
2022-11-02T09:18:43.159Z,87
2022-11-02T09:19:43.160Z,88
2022-11-02T09:20:43.158Z,88
2022-11-02T09:21:43.143Z,88
2022-11-02T09:22:43.130Z,88
2022-11-02T09:23:43.152Z,88
2022-11-02T09:24:43.163Z,88
2022-11-02T09:25:43.169Z,87
2022-11-02T09:26:43.161Z,87
2022-11-02T09:27:43.157Z,87
2022-11-02T09:28:43.148Z,87
2022-11-02T09:29:43.152Z,87
2022-11-02T09:30:43.190Z,87
2022-11-02T09:31:43.200Z,86
2022-11-02T09:32:43.177Z,86
2022-11-02T09:33:43.183Z,87
2022-11-02T09:34:43.191Z,87
2022-11-02T09:35:43.172Z,86
2022-11-02T09:36:43.181Z,87
2022-11-02T09:37:45.801Z,87
2022-11-02T09:38:43.181Z,87
2022-11-02T09:39:43.186Z,86
2022-11-02T09:40:43.207Z,86
2022-11-02T09:41:43.219Z,86
2022-11-02T09:42:43.188Z,86
2022-11-02T09:43:43.195Z,87
2022-11-02T09:44:43.198Z,86
2022-11-02T09:45:43.196Z,86
2022-11-02T09:46:43.229Z,85
2022-11-02T09:48:15.144Z,86
2022-11-02T09:48:43.219Z,86
2022-11-02T09:49:43.202Z,85
2022-11-02T09:50:43.212Z,85
2022-11-02T09:51:43.233Z,84
2022-11-02T09:52:43.222Z,86
2022-11-02T09:53:43.217Z,85
2022-11-02T09:54:43.216Z,85
2022-11-02T09:55:43.236Z,86
2022-11-02T09:56:43.239Z,85
2022-11-02T09:57:43.240Z,84
2022-11-02T09:58:43.240Z,86
2022-11-02T09:59:43.241Z,84
2022-11-02T10:00:43.226Z,85
2022-11-02T10:01:43.314Z,85
2022-11-02T10:02:43.269Z,83
2022-11-02T10:03:43.244Z,83
2022-11-02T10:04:43.246Z,84
2022-11-02T10:05:43.258Z,84
2022-11-02T10:06:43.251Z,84
2022-11-02T10:07:43.265Z,84
2022-11-02T10:08:43.251Z,84
2022-11-02T10:09:43.264Z,85
2022-11-02T10:10:43.273Z,84
2022-11-02T10:11:43.313Z,84
2022-11-02T10:12:43.278Z,84
2022-11-02T10:13:43.285Z,85
2022-11-02T10:14:43.279Z,84
2022-11-02T10:15:43.299Z,84
2022-11-02T10:16:43.285Z,84
2022-11-02T10:17:43.285Z,83
2022-11-02T10:18:43.283Z,83
2022-11-02T10:19:43.302Z,83
2022-11-02T10:20:43.407Z,83
2022-11-02T10:21:43.290Z,82
2022-11-02T10:22:43.303Z,81
2022-11-02T10:23:43.289Z,82
2022-11-02T10:24:43.330Z,82
2022-11-02T10:25:43.305Z,81
2022-11-02T10:26:43.315Z,81
2022-11-02T10:27:43.351Z,81
2022-11-02T10:28:43.324Z,81
2022-11-02T10:29:43.395Z,81
2022-11-02T10:30:43.334Z,81
2022-11-02T10:31:43.298Z,81
2022-11-02T10:33:43.309Z,80
2022-11-02T10:34:43.306Z,81
2022-11-02T10:36:04.568Z,81
2022-11-02T10:36:43.316Z,80
2022-11-02T10:37:43.338Z,82
2022-11-02T10:38:43.329Z,80
2022-11-02T10:39:43.347Z,80
2022-11-02T10:40:43.352Z,79
2022-11-02T10:41:43.323Z,81
2022-11-02T10:42:43.333Z,80
2022-11-02T10:43:44.471Z,81
2022-11-02T10:44:43.329Z,80
2022-11-02T10:45:43.385Z,79
2022-11-02T10:46:43.335Z,80
2022-11-02T10:47:43.359Z,79
2022-11-02T10:48:43.357Z,79
2022-11-02T10:49:43.363Z,78
2022-11-02T10:50:43.421Z,77
2022-11-02T10:51:43.395Z,77
2022-11-02T10:52:43.387Z,79
2022-11-02T10:53:43.759Z,79
2022-11-02T10:54:43.376Z,79
2022-11-02T10:55:43.476Z,79
2022-11-02T10:56:43.376Z,79
2022-11-02T10:57:43.387Z,78
2022-11-02T10:58:43.386Z,77
2022-11-02T10:59:43.377Z,77
2022-11-02T11:00:43.398Z,77
2022-11-02T11:01:43.485Z,78
2022-11-02T11:02:43.375Z,77
2022-11-02T11:03:43.365Z,76
2022-11-02T11:04:43.415Z,76
2022-11-02T11:05:43.394Z,76
2022-11-02T11:06:43.395Z,77
2022-11-02T11:07:43.544Z,78
2022-11-02T11:08:43.406Z,75
2022-11-02T11:09:46.607Z,75
2022-11-02T11:10:43.404Z,74
2022-11-02T11:11:43.417Z,74
2022-11-02T11:12:43.439Z,75
2022-11-02T11:15:46.631Z,72
2022-11-02T11:16:43.469Z,72
2022-11-02T11:19:43.443Z,71
2022-11-02T11:20:43.449Z,71
2022-11-02T11:21:43.496Z,71
2022-11-02T11:22:43.473Z,71
2022-11-02T11:23:43.459Z,71
2022-11-02T11:24:43.560Z,70
2022-11-02T11:25:43.464Z,70
2022-11-02T11:26:43.459Z,70
2022-11-02T11:27:43.461Z,70
2022-11-02T11:28:43.457Z,69
2022-11-02T11:29:43.454Z,69
2022-11-02T11:30:59.316Z,68
2022-11-02T11:31:43.469Z,70
2022-11-02T11:32:43.462Z,69
2022-11-02T11:33:43.488Z,68
2022-11-02T11:34:43.465Z,69
2022-11-02T11:35:43.530Z,69
2022-11-02T11:36:43.496Z,69
2022-11-02T11:37:43.493Z,68
2022-11-02T11:38:43.500Z,67
2022-11-02T11:39:43.500Z,68
2022-11-02T11:40:43.498Z,68
2022-11-02T11:41:43.515Z,68
2022-11-02T11:42:43.512Z,68
2022-11-02T11:43:43.483Z,68
2022-11-02T11:44:43.499Z,67
2022-11-02T11:45:43.509Z,67
2022-11-02T11:46:43.501Z,67
2022-11-02T11:47:43.509Z,67
2022-11-02T11:48:43.513Z,67
2022-11-02T11:50:43.521Z,67
2022-11-02T11:51:43.516Z,67
2022-11-02T11:52:43.541Z,65
2022-11-02T11:53:43.564Z,66
2022-11-02T11:54:43.532Z,66
2022-11-02T11:55:43.555Z,66
2022-11-02T11:56:43.555Z,64
2022-11-02T11:57:43.558Z,65
2022-11-02T11:58:46.573Z,66
2022-11-02T11:59:43.542Z,66
2022-11-02T12:00:43.558Z,65
2022-11-02T12:01:43.667Z,66
2022-11-02T12:02:44.793Z,67
2022-11-02T12:03:43.592Z,67
2022-11-02T12:04:43.580Z,66
2022-11-02T12:05:43.617Z,66
2022-11-02T12:06:43.595Z,67
2022-11-02T12:07:43.576Z,66
2022-11-02T12:08:43.600Z,65
2022-11-02T12:09:43.604Z,66
2022-11-02T12:10:43.623Z,65
2022-11-02T12:11:43.580Z,66
2022-11-02T12:12:43.618Z,67
2022-11-02T12:13:43.592Z,67
2022-11-02T12:14:43.594Z,67
2022-11-02T12:15:43.606Z,66
2022-11-02T12:16:43.605Z,66
2022-11-02T12:17:43.601Z,67
2022-11-02T12:18:43.605Z,67
2022-11-02T12:19:43.645Z,66
2022-11-02T12:20:43.645Z,66
2022-11-02T12:21:43.653Z,67
2022-11-02T12:22:43.636Z,68
2022-11-02T12:23:43.660Z,68
2022-11-02T12:24:43.629Z,67
2022-11-02T12:25:43.634Z,67
2022-11-02T12:26:43.617Z,67
2022-11-02T12:27:43.658Z,67
2022-11-02T12:28:43.626Z,67
2022-11-02T12:29:43.628Z,67
2022-11-02T12:30:43.630Z,66
2022-11-02T12:31:43.663Z,67
2022-11-02T12:32:43.671Z,67
2022-11-02T12:33:43.678Z,66
2022-11-02T12:34:46.492Z,67
2022-11-02T12:35:43.665Z,66
2022-11-02T12:37:03.724Z,66
2022-11-02T12:37:43.711Z,66
2022-11-02T12:38:43.700Z,65
2022-11-02T12:39:43.686Z,64
2022-11-02T12:40:43.712Z,66
2022-11-02T12:41:43.749Z,64
2022-11-02T12:42:43.672Z,65
2022-11-02T12:43:43.701Z,65
2022-11-02T12:44:43.676Z,64
2022-11-02T12:45:43.720Z,65
2022-11-02T12:46:48.634Z,64
2022-11-02T12:47:43.700Z,64
2022-11-02T12:48:43.701Z,64
2022-11-02T12:49:43.722Z,63
2022-11-02T12:50:43.767Z,64
2022-11-02T12:51:43.698Z,64
2022-11-02T12:52:43.695Z,62
2022-11-02T12:53:43.733Z,61
2022-11-02T12:54:43.699Z,63
2022-11-02T12:55:43.707Z,61
2022-11-02T12:56:43.702Z,62
2022-11-02T12:57:43.706Z,63
2022-11-02T12:58:43.700Z,62
2022-11-02T12:59:43.739Z,63
2022-11-02T13:00:43.793Z,63
2022-11-02T13:01:43.926Z,62
2022-11-02T13:02:43.724Z,62
2022-11-02T13:03:43.745Z,62
2022-11-02T13:04:43.734Z,62
2022-11-02T13:05:43.750Z,62
2022-11-02T13:06:43.749Z,63
2022-11-02T13:07:43.760Z,62
2022-11-02T13:08:43.775Z,61
2022-11-02T13:09:46.421Z,61
2022-11-02T13:10:43.769Z,62
2022-11-02T13:11:43.758Z,62
2022-11-02T13:12:43.772Z,61
2022-11-02T13:13:43.786Z,62
2022-11-02T13:14:43.776Z,62
2022-11-02T13:15:43.811Z,61
2022-11-02T13:16:43.783Z,61
2022-11-02T13:17:43.783Z,62
2022-11-02T13:18:43.808Z,61
2022-11-02T13:19:43.832Z,61
2022-11-02T13:20:43.776Z,60
2022-11-02T13:21:44.385Z,59
2022-11-02T13:22:43.808Z,59
2022-11-02T13:23:43.775Z,59
2022-11-02T13:24:43.786Z,59
2022-11-02T13:25:43.813Z,60
2022-11-02T13:26:43.815Z,60
2022-11-02T13:27:43.827Z,59
2022-11-02T13:28:43.813Z,60
2022-11-02T13:29:43.793Z,60
2022-11-02T13:30:43.808Z,60
2022-11-02T13:31:43.815Z,61
2022-11-02T13:32:43.791Z,60
2022-11-02T13:33:43.793Z,60
2022-11-02T13:34:43.805Z,60
2022-11-02T13:35:43.830Z,61
2022-11-02T13:36:43.824Z,59
2022-11-02T13:37:43.802Z,60
2022-11-02T13:38:43.822Z,60
2022-11-02T13:39:43.824Z,58
2022-11-02T13:40:43.822Z,59
2022-11-02T13:41:43.841Z,59
2022-11-02T13:42:43.844Z,58
2022-11-02T13:43:43.830Z,58
2022-11-02T13:44:43.860Z,57
2022-11-02T13:45:43.845Z,58
2022-11-02T13:46:43.816Z,59
2022-11-02T13:47:43.838Z,59
2022-11-02T13:48:43.831Z,59
2022-11-02T13:49:43.851Z,58
2022-11-02T13:50:43.836Z,57
2022-11-02T13:51:43.857Z,57
2022-11-02T13:52:43.832Z,57
2022-11-02T13:53:43.835Z,58
2022-11-02T13:54:43.874Z,57
2022-11-02T13:55:45.508Z,57
2022-11-02T13:56:43.845Z,58
2022-11-02T13:57:43.886Z,57
2022-11-02T13:58:43.839Z,56
2022-11-02T13:59:43.885Z,58
2022-11-02T14:00:43.876Z,58
2022-11-02T14:01:44.018Z,57
2022-11-02T14:02:44.040Z,57
2022-11-02T14:03:43.904Z,58
2022-11-02T14:04:43.864Z,57
2022-11-02T14:05:43.868Z,57
2022-11-02T14:06:43.860Z,58
2022-11-02T14:07:43.909Z,58
2022-11-02T14:08:43.885Z,58
2022-11-02T14:09:43.904Z,58
2022-11-02T14:10:43.923Z,57
2022-11-02T14:11:43.900Z,57
2022-11-02T14:12:43.885Z,56
2022-11-02T14:13:43.921Z,56
2022-11-02T14:14:43.906Z,56
2022-11-02T14:15:43.899Z,56
2022-11-02T14:16:43.897Z,55
2022-11-02T14:17:43.895Z,55
2022-11-02T14:18:43.911Z,56
2022-11-02T14:19:43.902Z,55
2022-11-02T14:20:43.904Z,55
2022-11-02T14:21:43.908Z,55